sensor_id;sensor_type;location;lat;lon;timestamp;P1;durP1;ratioP1;P2;durP2;ratioP2
56860;SDS011;42744;51.094;3.490;2023-04-12T00:00:03;4.03;;;2.30;;
56860;SDS011;42744;51.094;3.490;2023-04-12T00:02:34;6.27;;;3.03;;
56860;SDS011;42744;51.094;3.490;2023-04-12T00:05:01;6.20;;;2.80;;
56860;SDS011;42744;51.094;3.490;2023-04-12T00:07:27;7.03;;;2.00;;
56860;SDS011;42744;51.094;3.490;2023-04-12T00:09:54;5.30;;;1.70;;
56860;SDS011;42744;51.094;3.490;2023-04-12T00:12:20;3.73;;;2.20;;
56860;SDS011;42744;51.094;3.490;2023-04-12T00:14:46;6.63;;;2.03;;
56860;SDS011;42744;51.094;3.490;2023-04-12T00:17:13;5.57;;;1.80;;
56860;SDS011;42744;51.094;3.490;2023-04-12T00:19:39;5.33;;;2.53;;
56860;SDS011;42744;51.094;3.490;2023-04-12T00:22:09;4.87;;;1.87;;
56860;SDS011;42744;51.094;3.490;2023-04-12T00:24:39;9.23;;;2.00;;
56860;SDS011;42744;51.094;3.490;2023-04-12T00:27:06;3.70;;;1.50;;
56860;SDS011;42744;51.094;3.490;2023-04-12T00:29:32;4.07;;;1.57;;
56860;SDS011;42744;51.094;3.490;2023-04-12T00:31:59;7.93;;;2.10;;
56860;SDS011;42744;51.094;3.490;2023-04-12T00:34:26;4.63;;;1.90;;
56860;SDS011;42744;51.094;3.490;2023-04-12T00:36:53;7.37;;;2.03;;
56860;SDS011;42744;51.094;3.490;2023-04-12T00:39:19;4.83;;;1.67;;
56860;SDS011;42744;51.094;3.490;2023-04-12T00:41:45;3.83;;;2.00;;
56860;SDS011;42744;51.094;3.490;2023-04-12T00:44:11;6.27;;;2.17;;
56860;SDS011;42744;51.094;3.490;2023-04-12T00:46:38;5.80;;;1.80;;
56860;SDS011;42744;51.094;3.490;2023-04-12T00:49:05;3.90;;;2.10;;
56860;SDS011;42744;51.094;3.490;2023-04-12T00:51:31;6.30;;;1.90;;
56860;SDS011;42744;51.094;3.490;2023-04-12T00:53:58;8.20;;;1.60;;
56860;SDS011;42744;51.094;3.490;2023-04-12T00:56:25;4.73;;;1.40;;
56860;SDS011;42744;51.094;3.490;2023-04-12T00:58:54;3.47;;;1.60;;
56860;SDS011;42744;51.094;3.490;2023-04-12T01:01:21;6.83;;;1.77;;
56860;SDS011;42744;51.094;3.490;2023-04-12T01:03:47;3.93;;;1.80;;
56860;SDS011;42744;51.094;3.490;2023-04-12T01:15:01;4.57;;;1.63;;
56860;SDS011;42744;51.094;3.490;2023-04-12T01:17:32;5.80;;;2.10;;
56860;SDS011;42744;51.094;3.490;2023-04-12T01:20:08;6.50;;;1.70;;
56860;SDS011;42744;51.094;3.490;2023-04-12T01:25:48;5.57;;;1.67;;
56860;SDS011;42744;51.094;3.490;2023-04-12T01:28:30;2.43;;;1.60;;
56860;SDS011;42744;51.094;3.490;2023-04-12T01:31:00;7.07;;;2.17;;
56860;SDS011;42744;51.094;3.490;2023-04-12T01:33:27;5.40;;;1.87;;
56860;SDS011;42744;51.094;3.490;2023-04-12T01:36:03;8.87;;;2.50;;
56860;SDS011;42744;51.094;3.490;2023-04-12T01:38:36;4.17;;;1.70;;
56860;SDS011;42744;51.094;3.490;2023-04-12T01:41:04;4.00;;;2.10;;
56860;SDS011;42744;51.094;3.490;2023-04-12T01:43:32;7.63;;;2.40;;
56860;SDS011;42744;51.094;3.490;2023-04-12T01:46:04;3.40;;;1.97;;
56860;SDS011;42744;51.094;3.490;2023-04-12T01:48:30;5.23;;;2.07;;
56860;SDS011;42744;51.094;3.490;2023-04-12T01:53:30;4.33;;;2.20;;
56860;SDS011;42744;51.094;3.490;2023-04-12T01:55:59;5.27;;;2.10;;
56860;SDS011;42744;51.094;3.490;2023-04-12T01:58:31;6.23;;;2.10;;
56860;SDS011;42744;51.094;3.490;2023-04-12T02:00:59;4.80;;;2.27;;
56860;SDS011;42744;51.094;3.490;2023-04-12T02:03:27;4.87;;;2.30;;
56860;SDS011;42744;51.094;3.490;2023-04-12T02:05:57;6.07;;;2.60;;
56860;SDS011;42744;51.094;3.490;2023-04-12T02:08:24;5.37;;;2.70;;
56860;SDS011;42744;51.094;3.490;2023-04-12T02:10:50;5.30;;;2.97;;
56860;SDS011;42744;51.094;3.490;2023-04-12T02:13:17;5.50;;;3.00;;
56860;SDS011;42744;51.094;3.490;2023-04-12T02:15:43;4.67;;;2.73;;
56860;SDS011;42744;51.094;3.490;2023-04-12T02:18:10;5.83;;;2.73;;
56860;SDS011;42744;51.094;3.490;2023-04-12T02:20:39;4.73;;;2.83;;
56860;SDS011;42744;51.094;3.490;2023-04-12T02:23:06;5.73;;;2.80;;
56860;SDS011;42744;51.094;3.490;2023-04-12T02:25:32;5.50;;;2.70;;
56860;SDS011;42744;51.094;3.490;2023-04-12T02:27:59;4.00;;;2.60;;
56860;SDS011;42744;51.094;3.490;2023-04-12T02:30:25;7.93;;;2.23;;
56860;SDS011;42744;51.094;3.490;2023-04-12T02:32:51;3.20;;;1.97;;
56860;SDS011;42744;51.094;3.490;2023-04-12T02:35:18;4.33;;;2.23;;
56860;SDS011;42744;51.094;3.490;2023-04-12T02:37:46;5.30;;;2.17;;
56860;SDS011;42744;51.094;3.490;2023-04-12T02:40:13;4.80;;;1.87;;
56860;SDS011;42744;51.094;3.490;2023-04-12T02:42:43;3.13;;;2.20;;
56860;SDS011;42744;51.094;3.490;2023-04-12T02:45:10;4.73;;;2.27;;
56860;SDS011;42744;51.094;3.490;2023-04-12T02:47:36;5.37;;;1.77;;
56860;SDS011;42744;51.094;3.490;2023-04-12T02:50:04;4.30;;;1.77;;
56860;SDS011;42744;51.094;3.490;2023-04-12T02:52:33;6.43;;;2.60;;
56860;SDS011;42744;51.094;3.490;2023-04-12T02:54:59;3.90;;;1.67;;
56860;SDS011;42744;51.094;3.490;2023-04-12T02:57:26;3.37;;;2.03;;
56860;SDS011;42744;51.094;3.490;2023-04-12T02:59:52;4.63;;;2.10;;
56860;SDS011;42744;51.094;3.490;2023-04-12T03:02:19;4.97;;;2.00;;
56860;SDS011;42744;51.094;3.490;2023-04-12T03:04:47;5.67;;;2.87;;
56860;SDS011;42744;51.094;3.490;2023-04-12T03:07:17;5.60;;;2.60;;
56860;SDS011;42744;51.094;3.490;2023-04-12T03:09:47;4.87;;;2.60;;
56860;SDS011;42744;51.094;3.490;2023-04-12T03:12:15;5.87;;;3.03;;
56860;SDS011;42744;51.094;3.490;2023-04-12T03:14:42;5.50;;;3.30;;
56860;SDS011;42744;51.094;3.490;2023-04-12T03:17:08;6.80;;;3.60;;
56860;SDS011;42744;51.094;3.490;2023-04-12T03:19:35;5.10;;;3.60;;
56860;SDS011;42744;51.094;3.490;2023-04-12T03:22:02;6.90;;;3.80;;
56860;SDS011;42744;51.094;3.490;2023-04-12T03:24:31;5.27;;;3.30;;
56860;SDS011;42744;51.094;3.490;2023-04-12T03:27:02;4.33;;;3.40;;
56860;SDS011;42744;51.094;3.490;2023-04-12T03:29:31;4.83;;;3.07;;
56860;SDS011;42744;51.094;3.490;2023-04-12T03:31:57;6.87;;;3.57;;
56860;SDS011;42744;51.094;3.490;2023-04-12T03:34:24;5.13;;;4.03;;
56860;SDS011;42744;51.094;3.490;2023-04-12T03:36:59;5.43;;;4.03;;
56860;SDS011;42744;51.094;3.490;2023-04-12T03:39:27;5.20;;;3.73;;
56860;SDS011;42744;51.094;3.490;2023-04-12T03:41:53;5.73;;;3.43;;
56860;SDS011;42744;51.094;3.490;2023-04-12T03:44:20;4.57;;;3.60;;
56860;SDS011;42744;51.094;3.490;2023-04-12T03:46:47;6.03;;;3.33;;
56860;SDS011;42744;51.094;3.490;2023-04-12T03:49:15;6.30;;;3.83;;
56860;SDS011;42744;51.094;3.490;2023-04-12T03:51:41;4.30;;;3.67;;
56860;SDS011;42744;51.094;3.490;2023-04-12T03:54:09;7.00;;;3.33;;
56860;SDS011;42744;51.094;3.490;2023-04-12T03:56:36;4.60;;;3.50;;
56860;SDS011;42744;51.094;3.490;2023-04-12T03:59:06;7.10;;;2.87;;
56860;SDS011;42744;51.094;3.490;2023-04-12T04:01:34;6.50;;;3.13;;
56860;SDS011;42744;51.094;3.490;2023-04-12T04:04:01;5.57;;;2.93;;
56860;SDS011;42744;51.094;3.490;2023-04-12T04:06:29;4.07;;;2.17;;
56860;SDS011;42744;51.094;3.490;2023-04-12T04:08:56;6.53;;;2.60;;
56860;SDS011;42744;51.094;3.490;2023-04-12T04:11:23;7.37;;;2.10;;
56860;SDS011;42744;51.094;3.490;2023-04-12T04:13:51;5.90;;;2.30;;
56860;SDS011;42744;51.094;3.490;2023-04-12T04:16:17;8.60;;;2.00;;
56860;SDS011;42744;51.094;3.490;2023-04-12T04:18:43;4.70;;;2.17;;
56860;SDS011;42744;51.094;3.490;2023-04-12T04:21:10;6.47;;;2.10;;
56860;SDS011;42744;51.094;3.490;2023-04-12T04:23:38;6.93;;;2.00;;
56860;SDS011;42744;51.094;3.490;2023-04-12T04:26:05;6.37;;;2.20;;
56860;SDS011;42744;51.094;3.490;2023-04-12T04:28:39;6.53;;;1.83;;
56860;SDS011;42744;51.094;3.490;2023-04-12T04:31:12;6.53;;;1.90;;
56860;SDS011;42744;51.094;3.490;2023-04-12T04:33:42;5.67;;;1.80;;
56860;SDS011;42744;51.094;3.490;2023-04-12T04:36:09;6.13;;;1.47;;
56860;SDS011;42744;51.094;3.490;2023-04-12T04:38:38;10.23;;;1.63;;
56860;SDS011;42744;51.094;3.490;2023-04-12T04:41:05;11.33;;;2.10;;
56860;SDS011;42744;51.094;3.490;2023-04-12T04:43:34;9.53;;;1.90;;
56860;SDS011;42744;51.094;3.490;2023-04-12T04:46:04;9.97;;;2.27;;
56860;SDS011;42744;51.094;3.490;2023-04-12T04:48:30;9.67;;;1.67;;
56860;SDS011;42744;51.094;3.490;2023-04-12T04:50:56;6.23;;;1.67;;
56860;SDS011;42744;51.094;3.490;2023-04-12T04:53:24;6.30;;;1.40;;
56860;SDS011;42744;51.094;3.490;2023-04-12T04:55:56;10.57;;;2.53;;
56860;SDS011;42744;51.094;3.490;2023-04-12T04:58:24;9.77;;;2.10;;
56860;SDS011;42744;51.094;3.490;2023-04-12T05:00:54;10.67;;;1.83;;
56860;SDS011;42744;51.094;3.490;2023-04-12T05:03:27;9.67;;;2.40;;
56860;SDS011;42744;51.094;3.490;2023-04-12T05:05:54;9.57;;;1.70;;
56860;SDS011;42744;51.094;3.490;2023-04-12T05:08:21;9.60;;;1.57;;
56860;SDS011;42744;51.094;3.490;2023-04-12T05:10:51;11.00;;;2.77;;
56860;SDS011;42744;51.094;3.490;2023-04-12T05:13:18;9.90;;;1.97;;
56860;SDS011;42744;51.094;3.490;2023-04-12T05:15:45;10.10;;;2.00;;
56860;SDS011;42744;51.094;3.490;2023-04-12T05:18:12;12.27;;;1.93;;
56860;SDS011;42744;51.094;3.490;2023-04-12T05:20:39;8.53;;;2.10;;
56860;SDS011;42744;51.094;3.490;2023-04-12T05:23:06;9.23;;;1.77;;
56860;SDS011;42744;51.094;3.490;2023-04-12T05:25:42;13.70;;;2.17;;
56860;SDS011;42744;51.094;3.490;2023-04-12T05:28:09;9.23;;;2.20;;
56860;SDS011;42744;51.094;3.490;2023-04-12T05:30:39;9.77;;;2.07;;
56860;SDS011;42744;51.094;3.490;2023-04-12T05:33:05;10.73;;;1.80;;
56860;SDS011;42744;51.094;3.490;2023-04-12T05:35:32;9.47;;;2.30;;
56860;SDS011;42744;51.094;3.490;2023-04-12T05:37:58;14.07;;;2.60;;
56860;SDS011;42744;51.094;3.490;2023-04-12T05:40:25;12.17;;;2.30;;
56860;SDS011;42744;51.094;3.490;2023-04-12T05:42:52;12.03;;;2.70;;
56860;SDS011;42744;51.094;3.490;2023-04-12T05:45:18;13.37;;;2.87;;
56860;SDS011;42744;51.094;3.490;2023-04-12T05:47:44;12.23;;;2.33;;
56860;SDS011;42744;51.094;3.490;2023-04-12T05:50:10;14.10;;;2.40;;
56860;SDS011;42744;51.094;3.490;2023-04-12T05:52:37;13.87;;;2.57;;
56860;SDS011;42744;51.094;3.490;2023-04-12T05:55:03;12.57;;;2.40;;
56860;SDS011;42744;51.094;3.490;2023-04-12T05:57:30;15.43;;;2.70;;
56860;SDS011;42744;51.094;3.490;2023-04-12T05:59:56;16.87;;;2.97;;
56860;SDS011;42744;51.094;3.490;2023-04-12T06:02:22;15.00;;;2.80;;
56860;SDS011;42744;51.094;3.490;2023-04-12T06:04:50;14.33;;;2.67;;
56860;SDS011;42744;51.094;3.490;2023-04-12T06:07:18;12.53;;;2.63;;
56860;SDS011;42744;51.094;3.490;2023-04-12T06:09:45;12.90;;;2.50;;
56860;SDS011;42744;51.094;3.490;2023-04-12T06:12:12;13.90;;;2.30;;
56860;SDS011;42744;51.094;3.490;2023-04-12T06:14:38;9.43;;;2.50;;
56860;SDS011;42744;51.094;3.490;2023-04-12T06:17:05;12.37;;;1.90;;
56860;SDS011;42744;51.094;3.490;2023-04-12T06:19:32;12.87;;;1.97;;
56860;SDS011;42744;51.094;3.490;2023-04-12T06:21:58;12.03;;;2.30;;
56860;SDS011;42744;51.094;3.490;2023-04-12T06:24:24;11.17;;;2.30;;
56860;SDS011;42744;51.094;3.490;2023-04-12T06:26:50;14.10;;;2.60;;
56860;SDS011;42744;51.094;3.490;2023-04-12T06:29:16;13.10;;;2.63;;
56860;SDS011;42744;51.094;3.490;2023-04-12T06:31:43;14.63;;;2.40;;
56860;SDS011;42744;51.094;3.490;2023-04-12T06:34:10;16.97;;;1.90;;
56860;SDS011;42744;51.094;3.490;2023-04-12T06:36:36;9.87;;;2.10;;
56860;SDS011;42744;51.094;3.490;2023-04-12T06:39:05;12.90;;;2.20;;
56860;SDS011;42744;51.094;3.490;2023-04-12T06:41:33;12.53;;;2.17;;
56860;SDS011;42744;51.094;3.490;2023-04-12T06:43:59;11.83;;;2.30;;
56860;SDS011;42744;51.094;3.490;2023-04-12T06:46:25;10.80;;;1.90;;
56860;SDS011;42744;51.094;3.490;2023-04-12T06:48:52;13.40;;;1.63;;
56860;SDS011;42744;51.094;3.490;2023-04-12T06:51:18;11.33;;;2.30;;
56860;SDS011;42744;51.094;3.490;2023-04-12T06:53:44;9.30;;;1.70;;
56860;SDS011;42744;51.094;3.490;2023-04-12T06:56:10;14.40;;;2.07;;
56860;SDS011;42744;51.094;3.490;2023-04-12T06:58:36;9.40;;;2.00;;
56860;SDS011;42744;51.094;3.490;2023-04-12T07:01:05;13.43;;;2.27;;
56860;SDS011;42744;51.094;3.490;2023-04-12T07:03:32;8.17;;;2.00;;
56860;SDS011;42744;51.094;3.490;2023-04-12T07:05:59;9.13;;;1.83;;
56860;SDS011;42744;51.094;3.490;2023-04-12T07:08:27;9.40;;;2.00;;
56860;SDS011;42744;51.094;3.490;2023-04-12T07:10:54;9.70;;;2.03;;
56860;SDS011;42744;51.094;3.490;2023-04-12T07:13:20;9.67;;;2.20;;
56860;SDS011;42744;51.094;3.490;2023-04-12T07:15:50;8.60;;;1.90;;
56860;SDS011;42744;51.094;3.490;2023-04-12T07:18:17;11.37;;;2.63;;
56860;SDS011;42744;51.094;3.490;2023-04-12T07:20:45;11.57;;;1.93;;
56860;SDS011;42744;51.094;3.490;2023-04-12T07:23:12;12.43;;;2.13;;
56860;SDS011;42744;51.094;3.490;2023-04-12T07:25:39;7.47;;;1.57;;
56860;SDS011;42744;51.094;3.490;2023-04-12T07:28:05;8.60;;;1.93;;
56860;SDS011;42744;51.094;3.490;2023-04-12T07:30:31;5.57;;;1.40;;
56860;SDS011;42744;51.094;3.490;2023-04-12T07:32:57;7.77;;;1.70;;
56860;SDS011;42744;51.094;3.490;2023-04-12T07:35:27;10.97;;;2.00;;
56860;SDS011;42744;51.094;3.490;2023-04-12T07:37:53;9.17;;;1.73;;
56860;SDS011;42744;51.094;3.490;2023-04-12T07:40:19;9.33;;;1.87;;
56860;SDS011;42744;51.094;3.490;2023-04-12T07:42:45;7.83;;;1.93;;
56860;SDS011;42744;51.094;3.490;2023-04-12T07:45:11;9.70;;;2.10;;
56860;SDS011;42744;51.094;3.490;2023-04-12T07:47:37;9.47;;;2.40;;
56860;SDS011;42744;51.094;3.490;2023-04-12T07:50:03;8.70;;;2.43;;
56860;SDS011;42744;51.094;3.490;2023-04-12T07:52:30;11.70;;;1.83;;
56860;SDS011;42744;51.094;3.490;2023-04-12T07:54:57;12.10;;;2.40;;
56860;SDS011;42744;51.094;3.490;2023-04-12T07:57:23;10.27;;;2.27;;
56860;SDS011;42744;51.094;3.490;2023-04-12T07:59:50;8.13;;;1.90;;
56860;SDS011;42744;51.094;3.490;2023-04-12T08:02:16;9.47;;;1.90;;
56860;SDS011;42744;51.094;3.490;2023-04-12T08:04:49;10.83;;;2.10;;
56860;SDS011;42744;51.094;3.490;2023-04-12T08:07:16;12.20;;;2.43;;
56860;SDS011;42744;51.094;3.490;2023-04-12T08:09:42;5.97;;;1.57;;
56860;SDS011;42744;51.094;3.490;2023-04-12T08:12:08;9.73;;;2.63;;
56860;SDS011;42744;51.094;3.490;2023-04-12T08:14:34;7.50;;;2.07;;
56860;SDS011;42744;51.094;3.490;2023-04-12T08:16:59;7.43;;;2.53;;
56860;SDS011;42744;51.094;3.490;2023-04-12T08:19:26;10.17;;;2.23;;
56860;SDS011;42744;51.094;3.490;2023-04-12T08:21:51;7.80;;;1.70;;
56860;SDS011;42744;51.094;3.490;2023-04-12T08:24:18;6.60;;;2.17;;
56860;SDS011;42744;51.094;3.490;2023-04-12T08:26:44;8.43;;;2.33;;
56860;SDS011;42744;51.094;3.490;2023-04-12T08:29:10;10.93;;;1.43;;
56860;SDS011;42744;51.094;3.490;2023-04-12T08:31:36;7.47;;;1.83;;
56860;SDS011;42744;51.094;3.490;2023-04-12T08:34:03;11.17;;;2.23;;
56860;SDS011;42744;51.094;3.490;2023-04-12T08:36:29;10.70;;;1.97;;
56860;SDS011;42744;51.094;3.490;2023-04-12T08:38:58;9.83;;;2.03;;
56860;SDS011;42744;51.094;3.490;2023-04-12T08:41:25;11.07;;;2.63;;
56860;SDS011;42744;51.094;3.490;2023-04-12T08:43:51;13.43;;;2.77;;
56860;SDS011;42744;51.094;3.490;2023-04-12T08:46:19;12.50;;;2.40;;
56860;SDS011;42744;51.094;3.490;2023-04-12T08:48:47;20.83;;;3.17;;
56860;SDS011;42744;51.094;3.490;2023-04-12T08:51:18;12.27;;;2.13;;
56860;SDS011;42744;51.094;3.490;2023-04-12T08:53:46;8.57;;;2.07;;
56860;SDS011;42744;51.094;3.490;2023-04-12T08:56:12;10.63;;;2.23;;
56860;SDS011;42744;51.094;3.490;2023-04-12T08:58:41;13.70;;;2.47;;
56860;SDS011;42744;51.094;3.490;2023-04-12T09:01:13;12.83;;;2.97;;
56860;SDS011;42744;51.094;3.490;2023-04-12T09:03:44;12.17;;;2.53;;
56860;SDS011;42744;51.094;3.490;2023-04-12T09:06:13;14.67;;;2.40;;
56860;SDS011;42744;51.094;3.490;2023-04-12T09:08:53;11.10;;;2.17;;
56860;SDS011;42744;51.094;3.490;2023-04-12T09:11:20;11.27;;;2.80;;
56860;SDS011;42744;51.094;3.490;2023-04-12T09:13:48;12.80;;;2.70;;
56860;SDS011;42744;51.094;3.490;2023-04-12T09:16:15;13.20;;;2.47;;
56860;SDS011;42744;51.094;3.490;2023-04-12T09:18:48;13.43;;;2.67;;
56860;SDS011;42744;51.094;3.490;2023-04-12T09:21:14;13.17;;;2.80;;
56860;SDS011;42744;51.094;3.490;2023-04-12T09:23:41;10.80;;;2.70;;
56860;SDS011;42744;51.094;3.490;2023-04-12T09:26:07;15.73;;;3.10;;
56860;SDS011;42744;51.094;3.490;2023-04-12T09:28:34;8.73;;;1.93;;
56860;SDS011;42744;51.094;3.490;2023-04-12T09:30:59;11.10;;;2.10;;
56860;SDS011;42744;51.094;3.490;2023-04-12T09:33:35;15.53;;;3.63;;
56860;SDS011;42744;51.094;3.490;2023-04-12T09:36:02;12.87;;;2.70;;
56860;SDS011;42744;51.094;3.490;2023-04-12T09:38:29;15.20;;;2.43;;
56860;SDS011;42744;51.094;3.490;2023-04-12T09:40:56;12.70;;;2.50;;
56860;SDS011;42744;51.094;3.490;2023-04-12T09:43:38;17.73;;;3.27;;
56860;SDS011;42744;51.094;3.490;2023-04-12T09:46:10;12.77;;;3.10;;
56860;SDS011;42744;51.094;3.490;2023-04-12T09:48:38;18.13;;;3.33;;
56860;SDS011;42744;51.094;3.490;2023-04-12T09:51:05;9.37;;;2.47;;
56860;SDS011;42744;51.094;3.490;2023-04-12T09:53:35;14.03;;;2.60;;
56860;SDS011;42744;51.094;3.490;2023-04-12T09:56:05;10.77;;;2.40;;
56860;SDS011;42744;51.094;3.490;2023-04-12T09:58:33;8.50;;;2.03;;
56860;SDS011;42744;51.094;3.490;2023-04-12T10:01:02;9.37;;;2.40;;
56860;SDS011;42744;51.094;3.490;2023-04-12T10:03:30;7.70;;;1.93;;
56860;SDS011;42744;51.094;3.490;2023-04-12T10:05:56;10.30;;;2.10;;
56860;SDS011;42744;51.094;3.490;2023-04-12T10:08:22;10.03;;;2.23;;
56860;SDS011;42744;51.094;3.490;2023-04-12T10:10:48;11.80;;;2.07;;
56860;SDS011;42744;51.094;3.490;2023-04-12T10:13:16;11.17;;;1.70;;
56860;SDS011;42744;51.094;3.490;2023-04-12T10:15:44;11.33;;;1.67;;
56860;SDS011;42744;51.094;3.490;2023-04-12T10:18:13;5.67;;;1.40;;
56860;SDS011;42744;51.094;3.490;2023-04-12T10:20:42;7.97;;;1.63;;
56860;SDS011;42744;51.094;3.490;2023-04-12T10:23:13;8.07;;;2.03;;
56860;SDS011;42744;51.094;3.490;2023-04-12T10:25:40;11.37;;;1.93;;
56860;SDS011;42744;51.094;3.490;2023-04-12T10:28:13;5.63;;;0.97;;
56860;SDS011;42744;51.094;3.490;2023-04-12T10:30:41;3.80;;;0.50;;
56860;SDS011;42744;51.094;3.490;2023-04-12T10:38:18;2.20;;;0.60;;
56860;SDS011;42744;51.094;3.490;2023-04-12T10:43:35;2.50;;;0.73;;
56860;SDS011;42744;51.094;3.490;2023-04-12T10:46:02;3.60;;;0.83;;
56860;SDS011;42744;51.094;3.490;2023-04-12T10:48:35;3.80;;;0.80;;
56860;SDS011;42744;51.094;3.490;2023-04-12T10:53:49;3.23;;;0.70;;
56860;SDS011;42744;51.094;3.490;2023-04-12T10:58:58;4.30;;;0.80;;
56860;SDS011;42744;51.094;3.490;2023-04-12T11:01:26;3.50;;;0.87;;
56860;SDS011;42744;51.094;3.490;2023-04-12T11:06:42;2.57;;;0.70;;
56860;SDS011;42744;51.094;3.490;2023-04-12T11:14:35;2.43;;;0.70;;
56860;SDS011;42744;51.094;3.490;2023-04-12T11:19:31;3.03;;;1.00;;
56860;SDS011;42744;51.094;3.490;2023-04-12T11:22:11;3.87;;;1.00;;
56860;SDS011;42744;51.094;3.490;2023-04-12T11:24:52;4.30;;;0.90;;
56860;SDS011;42744;51.094;3.490;2023-04-12T11:27:27;2.93;;;0.90;;
56860;SDS011;42744;51.094;3.490;2023-04-12T11:29:55;2.93;;;0.80;;
56860;SDS011;42744;51.094;3.490;2023-04-12T11:32:24;4.93;;;0.97;;
56860;SDS011;42744;51.094;3.490;2023-04-12T11:34:52;3.03;;;0.90;;
56860;SDS011;42744;51.094;3.490;2023-04-12T11:37:20;4.13;;;1.13;;
56860;SDS011;42744;51.094;3.490;2023-04-12T11:39:49;3.80;;;0.87;;
56860;SDS011;42744;51.094;3.490;2023-04-12T11:42:18;7.57;;;1.47;;
56860;SDS011;42744;51.094;3.490;2023-04-12T11:44:47;6.20;;;1.17;;
56860;SDS011;42744;51.094;3.490;2023-04-12T11:47:15;4.67;;;1.13;;
56860;SDS011;42744;51.094;3.490;2023-04-12T11:49:43;3.10;;;1.10;;
56860;SDS011;42744;51.094;3.490;2023-04-12T11:52:17;4.67;;;1.10;;
56860;SDS011;42744;51.094;3.490;2023-04-12T11:54:53;4.63;;;0.90;;
56860;SDS011;42744;51.094;3.490;2023-04-12T11:57:23;5.33;;;0.80;;
56860;SDS011;42744;51.094;3.490;2023-04-12T11:59:49;5.33;;;1.10;;
56860;SDS011;42744;51.094;3.490;2023-04-12T12:02:15;4.47;;;1.23;;
56860;SDS011;42744;51.094;3.490;2023-04-12T12:04:45;5.40;;;0.97;;
56860;SDS011;42744;51.094;3.490;2023-04-12T12:07:13;3.83;;;0.97;;
56860;SDS011;42744;51.094;3.490;2023-04-12T12:09:41;6.83;;;1.30;;
56860;SDS011;42744;51.094;3.490;2023-04-12T12:12:11;3.33;;;0.70;;
56860;SDS011;42744;51.094;3.490;2023-04-12T12:14:38;2.20;;;0.43;;
56860;SDS011;42744;51.094;3.490;2023-04-12T12:17:13;2.60;;;0.40;;
56860;SDS011;42744;51.094;3.490;2023-04-12T12:19:41;5.10;;;0.60;;
56860;SDS011;42744;51.094;3.490;2023-04-12T12:22:09;1.27;;;0.40;;
56860;SDS011;42744;51.094;3.490;2023-04-12T12:24:37;1.10;;;0.40;;
56860;SDS011;42744;51.094;3.490;2023-04-12T12:27:35;2.17;;;0.70;;
56860;SDS011;42744;51.094;3.490;2023-04-12T12:30:02;2.30;;;0.60;;
56860;SDS011;42744;51.094;3.490;2023-04-12T12:32:34;4.40;;;0.90;;
56860;SDS011;42744;51.094;3.490;2023-04-12T12:35:01;1.83;;;0.67;;
56860;SDS011;42744;51.094;3.490;2023-04-12T12:37:33;5.07;;;1.07;;
56860;SDS011;42744;51.094;3.490;2023-04-12T12:40:06;4.90;;;0.87;;
56860;SDS011;42744;51.094;3.490;2023-04-12T12:42:54;5.90;;;1.07;;
56860;SDS011;42744;51.094;3.490;2023-04-12T12:45:21;4.37;;;1.07;;
56860;SDS011;42744;51.094;3.490;2023-04-12T12:47:59;6.20;;;1.20;;
56860;SDS011;42744;51.094;3.490;2023-04-12T12:50:29;4.87;;;1.10;;
56860;SDS011;42744;51.094;3.490;2023-04-12T12:53:00;10.00;;;1.53;;
56860;SDS011;42744;51.094;3.490;2023-04-12T12:55:27;5.87;;;1.33;;
56860;SDS011;42744;51.094;3.490;2023-04-12T12:57:55;5.83;;;1.20;;
56860;SDS011;42744;51.094;3.490;2023-04-12T13:00:23;7.40;;;1.07;;
56860;SDS011;42744;51.094;3.490;2023-04-12T13:02:50;4.93;;;1.00;;
56860;SDS011;42744;51.094;3.490;2023-04-12T13:05:17;7.20;;;1.50;;
56860;SDS011;42744;51.094;3.490;2023-04-12T13:07:45;2.23;;;0.80;;
56860;SDS011;42744;51.094;3.490;2023-04-12T13:10:11;4.83;;;1.03;;
56860;SDS011;42744;51.094;3.490;2023-04-12T13:12:38;4.57;;;1.00;;
56860;SDS011;42744;51.094;3.490;2023-04-12T13:15:04;3.60;;;0.87;;
56860;SDS011;42744;51.094;3.490;2023-04-12T13:17:30;7.40;;;1.47;;
56860;SDS011;42744;51.094;3.490;2023-04-12T13:19:56;6.40;;;0.97;;
56860;SDS011;42744;51.094;3.490;2023-04-12T13:22:24;4.87;;;0.73;;
56860;SDS011;42744;51.094;3.490;2023-04-12T13:24:51;2.83;;;0.73;;
56860;SDS011;42744;51.094;3.490;2023-04-12T13:27:17;4.33;;;0.90;;
56860;SDS011;42744;51.094;3.490;2023-04-12T13:29:43;5.17;;;1.00;;
56860;SDS011;42744;51.094;3.490;2023-04-12T13:32:09;2.83;;;0.80;;
56860;SDS011;42744;51.094;3.490;2023-04-12T13:34:35;3.37;;;0.60;;
56860;SDS011;42744;51.094;3.490;2023-04-12T13:37:02;5.03;;;1.10;;
56860;SDS011;42744;51.094;3.490;2023-04-12T13:39:28;3.30;;;1.10;;
56860;SDS011;42744;51.094;3.490;2023-04-12T13:41:54;3.57;;;1.17;;
56860;SDS011;42744;51.094;3.490;2023-04-12T13:44:21;3.27;;;0.80;;
56860;SDS011;42744;51.094;3.490;2023-04-12T13:46:47;5.77;;;0.90;;
56860;SDS011;42744;51.094;3.490;2023-04-12T13:49:13;5.73;;;1.37;;
56860;SDS011;42744;51.094;3.490;2023-04-12T13:51:39;4.03;;;0.97;;
56860;SDS011;42744;51.094;3.490;2023-04-12T13:54:05;5.33;;;1.13;;
56860;SDS011;42744;51.094;3.490;2023-04-12T13:56:31;4.53;;;0.80;;
56860;SDS011;42744;51.094;3.490;2023-04-12T13:58:57;5.57;;;0.77;;
56860;SDS011;42744;51.094;3.490;2023-04-12T14:01:23;5.73;;;1.00;;
56860;SDS011;42744;51.094;3.490;2023-04-12T14:03:50;6.77;;;1.13;;
56860;SDS011;42744;51.094;3.490;2023-04-12T14:06:17;6.83;;;0.83;;
56860;SDS011;42744;51.094;3.490;2023-04-12T14:08:44;4.93;;;1.00;;
56860;SDS011;42744;51.094;3.490;2023-04-12T14:11:10;6.30;;;0.80;;
56860;SDS011;42744;51.094;3.490;2023-04-12T14:13:36;2.47;;;0.70;;
56860;SDS011;42744;51.094;3.490;2023-04-12T14:16:02;6.10;;;0.80;;
56860;SDS011;42744;51.094;3.490;2023-04-12T14:18:29;4.30;;;0.80;;
56860;SDS011;42744;51.094;3.490;2023-04-12T14:20:55;6.03;;;1.00;;
56860;SDS011;42744;51.094;3.490;2023-04-12T14:23:23;7.23;;;1.33;;
56860;SDS011;42744;51.094;3.490;2023-04-12T14:25:50;6.53;;;1.10;;
56860;SDS011;42744;51.094;3.490;2023-04-12T14:28:17;6.93;;;1.67;;
56860;SDS011;42744;51.094;3.490;2023-04-12T14:30:55;3.33;;;0.90;;
56860;SDS011;42744;51.094;3.490;2023-04-12T14:33:22;4.00;;;1.20;;
56860;SDS011;42744;51.094;3.490;2023-04-12T14:35:49;1.70;;;0.60;;
56860;SDS011;42744;51.094;3.490;2023-04-12T14:38:15;3.20;;;1.27;;
56860;SDS011;42744;51.094;3.490;2023-04-12T14:40:41;3.70;;;0.97;;
56860;SDS011;42744;51.094;3.490;2023-04-12T14:43:07;4.63;;;0.80;;
56860;SDS011;42744;51.094;3.490;2023-04-12T14:45:35;4.17;;;0.70;;
56860;SDS011;42744;51.094;3.490;2023-04-12T14:48:01;3.07;;;0.70;;
56860;SDS011;42744;51.094;3.490;2023-04-12T14:50:27;3.33;;;0.97;;
56860;SDS011;42744;51.094;3.490;2023-04-12T14:52:53;5.37;;;1.03;;
56860;SDS011;42744;51.094;3.490;2023-04-12T14:55:19;5.77;;;1.07;;
56860;SDS011;42744;51.094;3.490;2023-04-12T14:57:46;2.70;;;0.90;;
56860;SDS011;42744;51.094;3.490;2023-04-12T15:00:12;4.90;;;1.10;;
56860;SDS011;42744;51.094;3.490;2023-04-12T15:02:40;8.37;;;1.50;;
56860;SDS011;42744;51.094;3.490;2023-04-12T15:05:08;6.07;;;1.60;;
56860;SDS011;42744;51.094;3.490;2023-04-12T15:07:34;5.03;;;0.80;;
56860;SDS011;42744;51.094;3.490;2023-04-12T15:10:01;4.23;;;0.90;;
56860;SDS011;42744;51.094;3.490;2023-04-12T15:12:29;6.40;;;0.90;;
56860;SDS011;42744;51.094;3.490;2023-04-12T15:14:58;4.17;;;1.10;;
56860;SDS011;42744;51.094;3.490;2023-04-12T15:17:25;4.77;;;0.90;;
56860;SDS011;42744;51.094;3.490;2023-04-12T15:19:51;4.63;;;1.40;;
56860;SDS011;42744;51.094;3.490;2023-04-12T15:22:17;6.60;;;1.10;;
56860;SDS011;42744;51.094;3.490;2023-04-12T15:24:43;6.30;;;1.37;;
56860;SDS011;42744;51.094;3.490;2023-04-12T15:27:09;2.57;;;0.80;;